createdAt,value
2017-11-14T00:00:03.818Z,9.40
2017-11-14T00:02:31.645Z,8.52
2017-11-14T00:05:01.549Z,10.13
2017-11-14T00:07:28.994Z,9.30
2017-11-14T00:09:56.814Z,9.45
2017-11-14T00:12:26.595Z,9.77
2017-11-14T00:14:54.033Z,8.27
2017-11-14T00:17:21.537Z,9.07
2017-11-14T00:19:48.973Z,7.50
2017-11-14T00:22:16.455Z,9.80
2017-11-14T00:24:45.638Z,7.30
2017-11-14T00:27:13.194Z,7.63
2017-11-14T00:29:40.672Z,7.33
2017-11-14T00:32:08.186Z,8.83
2017-11-14T00:34:35.664Z,8.73
2017-11-14T00:37:08.023Z,8.65
2017-11-14T00:39:35.466Z,9.07
2017-11-14T00:42:02.938Z,7.37
2017-11-14T00:44:30.396Z,8.43
2017-11-14T00:46:58.801Z,8.40
2017-11-14T00:49:26.401Z,9.40
2017-11-14T00:51:53.863Z,8.97
2017-11-14T00:54:21.411Z,10.90
2017-11-14T00:56:48.841Z,8.10
2017-11-14T00:59:16.367Z,9.90
2017-11-14T01:01:43.851Z,7.93
2017-11-14T01:04:11.497Z,9.90
2017-11-14T01:06:39.984Z,8.43
2017-11-14T01:09:07.962Z,10.13
2017-11-14T01:11:37.126Z,8.20
2017-11-14T01:14:04.699Z,9.65
2017-11-14T01:16:32.158Z,8.47
2017-11-14T01:18:59.633Z,8.90
2017-11-14T01:21:27.077Z,9.23
2017-11-14T01:23:54.604Z,8.57
2017-11-14T01:26:22.050Z,8.80
2017-11-14T01:28:49.518Z,9.80
2017-11-14T01:31:16.975Z,10.57
2017-11-14T01:33:44.765Z,9.18
2017-11-14T01:36:12.245Z,8.73
2017-11-14T01:38:39.986Z,10.43
2017-11-14T01:41:07.442Z,10.13
2017-11-14T01:43:34.910Z,9.85
2017-11-14T01:46:02.658Z,9.15
2017-11-14T01:48:30.539Z,9.00
2017-11-14T01:50:58.735Z,8.60
2017-11-14T01:53:29.941Z,9.13
2017-11-14T01:55:57.571Z,9.70
2017-11-14T01:58:25.046Z,9.80
2017-11-14T02:00:52.609Z,8.85
2017-11-14T02:03:20.077Z,9.90
2017-11-14T02:05:48.154Z,10.13
2017-11-14T02:08:26.390Z,8.00
2017-11-14T02:10:55.317Z,8.88
2017-11-14T02:13:22.786Z,9.10
2017-11-14T02:15:50.228Z,9.50
2017-11-14T02:18:17.876Z,11.45
2017-11-14T02:20:46.082Z,9.27
2017-11-14T02:23:13.526Z,9.65
2017-11-14T02:25:41.003Z,10.15
2017-11-14T02:28:08.474Z,9.40
2017-11-14T02:30:38.375Z,9.57
2017-11-14T02:33:05.839Z,10.50
2017-11-14T02:35:33.339Z,10.63
2017-11-14T02:38:01.297Z,10.13
2017-11-14T02:40:29.524Z,11.10
2017-11-14T02:42:58.125Z,11.20
2017-11-14T02:45:25.618Z,10.53
2017-11-14T02:47:53.066Z,10.37
2017-11-14T02:50:20.517Z,9.07
2017-11-14T02:52:48.265Z,9.60
2017-11-14T02:55:18.142Z,8.07
2017-11-14T02:57:45.609Z,10.07
2017-11-14T03:00:13.054Z,9.30
2017-11-14T03:02:41.363Z,9.85
2017-11-14T03:05:08.830Z,10.07
2017-11-14T03:07:36.926Z,7.83
2017-11-14T03:10:04.440Z,8.68
2017-11-14T03:12:31.915Z,8.53
2017-11-14T03:14:59.996Z,9.13
2017-11-14T03:17:27.758Z,9.80
2017-11-14T03:19:56.709Z,9.10
2017-11-14T03:22:25.698Z,10.00
2017-11-14T03:24:53.170Z,9.80
2017-11-14T03:27:20.619Z,9.80
2017-11-14T03:29:48.417Z,9.80
2017-11-14T03:32:15.876Z,11.02
2017-11-14T03:34:43.346Z,10.82
2017-11-14T03:37:10.827Z,11.47
2017-11-14T03:39:42.557Z,11.45
2017-11-14T03:42:10.022Z,10.07
2017-11-14T03:44:37.497Z,9.33
2017-11-14T03:47:04.949Z,11.13
2017-11-14T03:49:32.597Z,10.00
2017-11-14T03:52:00.048Z,9.63
2017-11-14T03:54:31.882Z,9.68
2017-11-14T03:56:59.332Z,9.82
2017-11-14T03:59:26.801Z,9.27
2017-11-14T04:01:54.243Z,11.33
2017-11-14T04:04:21.745Z,9.33
2017-11-14T04:06:49.449Z,10.20
2017-11-14T04:09:17.794Z,9.95
2017-11-14T04:11:49.321Z,10.23
2017-11-14T04:14:19.211Z,9.27
2017-11-14T04:16:46.885Z,9.93
2017-11-14T04:19:14.330Z,8.43
2017-11-14T04:21:42.556Z,9.52
2017-11-14T04:24:10.269Z,9.70
2017-11-14T04:26:37.854Z,9.43
2017-11-14T04:29:08.869Z,8.60
2017-11-14T04:31:36.318Z,8.50
2017-11-14T04:34:03.769Z,8.23
2017-11-14T04:36:34.237Z,9.25
2017-11-14T04:39:02.466Z,11.15
2017-11-14T04:41:33.845Z,8.17
2017-11-14T04:44:01.304Z,8.85
2017-11-14T04:46:30.286Z,8.20
2017-11-14T04:48:57.741Z,7.63
2017-11-14T04:51:25.218Z,8.20
2017-11-14T04:53:52.659Z,7.78
2017-11-14T04:56:20.130Z,8.73
2017-11-14T04:58:47.573Z,8.52
2017-11-14T05:01:15.021Z,7.73
2017-11-14T05:03:42.505Z,7.97
2017-11-14T05:06:11.457Z,7.72
2017-11-14T05:08:39.215Z,7.77
2017-11-14T05:11:11.075Z,8.93
2017-11-14T05:13:38.524Z,7.73
2017-11-14T05:16:06.885Z,8.50
2017-11-14T05:18:34.604Z,8.43
2017-11-14T05:21:02.390Z,8.48
2017-11-14T05:23:30.066Z,7.95
2017-11-14T05:26:00.393Z,8.82
2017-11-14T05:28:27.841Z,8.70
2017-11-14T05:30:56.100Z,8.33
2017-11-14T05:33:25.410Z,10.60
2017-11-14T05:35:52.863Z,9.07
2017-11-14T05:38:21.269Z,8.68
2017-11-14T05:40:50.426Z,8.87
2017-11-14T05:43:17.878Z,7.43
2017-11-14T05:45:45.442Z,8.57
2017-11-14T05:48:12.920Z,7.70
2017-11-14T05:50:40.556Z,6.72
2017-11-14T05:53:09.654Z,7.82
2017-11-14T05:55:37.105Z,7.97
2017-11-14T05:58:16.038Z,10.23
2017-11-14T06:00:43.705Z,9.00
2017-11-14T06:03:11.158Z,9.20
2017-11-14T06:05:38.623Z,8.77
2017-11-14T06:08:06.095Z,9.02
2017-11-14T06:10:35.246Z,8.68
2017-11-14T06:13:07.010Z,7.93
2017-11-14T06:15:36.089Z,8.90
2017-11-14T06:18:03.549Z,8.50
2017-11-14T06:20:31.002Z,8.83
2017-11-14T06:23:00.162Z,8.30
2017-11-14T06:25:27.608Z,9.50
2017-11-14T06:27:55.057Z,8.63
2017-11-14T06:30:22.546Z,10.90
2017-11-14T06:32:50.011Z,9.47
2017-11-14T06:35:17.437Z,12.80
2017-11-14T06:37:45.006Z,10.47
2017-11-14T06:40:14.174Z,8.85
2017-11-14T06:42:41.637Z,8.83
2017-11-14T06:45:09.090Z,9.57
2017-11-14T06:47:36.560Z,10.60
2017-11-14T06:50:04.029Z,8.27
2017-11-14T06:52:31.522Z,9.10
2017-11-14T06:54:59.001Z,9.50
2017-11-14T06:57:27.173Z,9.75
2017-11-14T06:59:54.657Z,9.95
2017-11-14T07:02:23.136Z,9.07
2017-11-14T07:04:50.886Z,9.68
2017-11-14T07:07:18.362Z,9.87
2017-11-14T07:09:47.214Z,10.68
2017-11-14T07:12:14.651Z,10.23
2017-11-14T07:14:42.142Z,9.10
2017-11-14T07:17:09.620Z,8.13
2017-11-14T07:19:37.091Z,9.00
2017-11-14T07:22:05.262Z,8.95
2017-11-14T07:24:32.723Z,8.80
2017-11-14T07:27:01.730Z,9.13
2017-11-14T07:29:30.220Z,8.70
2017-11-14T07:31:57.693Z,8.60
2017-11-14T07:34:25.163Z,7.77
2017-11-14T07:36:52.605Z,8.50
2017-11-14T07:39:20.070Z,9.93
2017-11-14T07:41:47.561Z,8.33
2017-11-14T07:44:15.041Z,7.60
2017-11-14T07:46:44.175Z,7.86
2017-11-14T07:49:11.713Z,7.00
2017-11-14T07:51:39.145Z,6.10
2017-11-14T07:54:06.620Z,8.07
2017-11-14T07:56:34.825Z,7.70
2017-11-14T07:59:02.358Z,7.72
2017-11-14T08:01:30.597Z,7.28
2017-11-14T08:03:58.026Z,6.63
2017-11-14T08:06:25.474Z,8.88
2017-11-14T08:08:53.033Z,7.50
2017-11-14T08:11:20.506Z,7.40
2017-11-14T08:13:47.955Z,7.80
2017-11-14T08:16:16.341Z,8.40
2017-11-14T08:18:43.784Z,7.43
2017-11-14T08:21:11.265Z,7.17
2017-11-14T08:23:38.706Z,7.85
2017-11-14T08:26:07.042Z,9.35
2017-11-14T08:28:35.219Z,8.32
2017-11-14T08:31:03.154Z,7.87
2017-11-14T08:33:31.527Z,8.13
2017-11-14T08:35:58.971Z,7.67
2017-11-14T08:38:26.433Z,7.10
2017-11-14T08:40:54.854Z,9.50
2017-11-14T08:43:23.057Z,7.83
2017-11-14T08:45:54.154Z,8.17
2017-11-14T08:48:21.596Z,7.17
2017-11-14T08:50:50.253Z,8.30
2017-11-14T08:53:17.701Z,7.80
2017-11-14T08:55:45.185Z,7.65
2017-11-14T08:58:12.618Z,7.50
2017-11-14T09:00:40.069Z,8.40
2017-11-14T09:03:07.859Z,8.95
2017-11-14T09:05:35.330Z,8.00
2017-11-14T09:08:03.226Z,9.57
2017-11-14T09:10:31.638Z,8.10
2017-11-14T09:12:59.070Z,8.07
2017-11-14T09:15:32.830Z,7.40
2017-11-14T09:18:00.458Z,7.90
2017-11-14T09:20:29.246Z,7.50
2017-11-14T09:22:56.908Z,8.25
2017-11-14T09:25:24.367Z,8.50
2017-11-14T09:27:51.797Z,8.43
2017-11-14T09:30:20.070Z,9.67
2017-11-14T09:32:47.506Z,8.15
2017-11-14T09:35:14.950Z,9.70
2017-11-14T09:37:42.418Z,9.07
2017-11-14T09:40:09.869Z,8.15
2017-11-14T09:42:38.859Z,10.10
2017-11-14T09:45:07.239Z,9.30
2017-11-14T09:47:38.398Z,9.13
2017-11-14T09:50:05.846Z,8.80
2017-11-14T09:52:33.306Z,9.67
2017-11-14T09:55:00.753Z,10.77
2017-11-14T09:57:28.225Z,8.47
2017-11-14T09:59:56.405Z,10.07
2017-11-14T10:02:24.618Z,8.60
2017-11-14T10:04:52.074Z,8.80
2017-11-14T10:07:19.531Z,9.20
2017-11-14T10:09:47.011Z,9.87
2017-11-14T10:12:15.401Z,9.98
2017-11-14T10:14:42.838Z,9.65
2017-11-14T10:17:10.286Z,10.00
2017-11-14T10:19:39.534Z,9.77
2017-11-14T10:22:07.014Z,10.40
2017-11-14T10:24:34.545Z,15.65
2017-11-14T10:27:01.995Z,11.20
2017-11-14T10:29:29.470Z,10.35
2017-11-14T10:32:00.596Z,10.20
2017-11-14T10:34:28.030Z,10.50
2017-11-14T10:36:56.050Z,10.18
2017-11-14T10:39:23.870Z,10.72
2017-11-14T10:41:51.338Z,10.00
2017-11-14T10:44:19.319Z,8.75
2017-11-14T10:46:46.778Z,10.13
2017-11-14T10:49:15.020Z,11.30
2017-11-14T10:51:42.808Z,9.50
2017-11-14T10:54:10.246Z,10.80
2017-11-14T10:56:37.715Z,11.50
2017-11-14T10:59:05.174Z,11.73
2017-11-14T11:01:39.924Z,10.25
2017-11-14T11:04:07.677Z,10.68
2017-11-14T11:06:35.150Z,10.30
2017-11-14T11:09:02.602Z,10.80
2017-11-14T11:11:30.114Z,8.67
2017-11-14T11:13:57.797Z,11.55
2017-11-14T11:16:32.054Z,8.80
2017-11-14T11:19:03.158Z,9.37
2017-11-14T11:21:30.605Z,10.23
2017-11-14T11:23:58.047Z,7.80
2017-11-14T11:26:25.570Z,8.00
2017-11-14T11:28:53.194Z,8.97
2017-11-14T11:31:22.582Z,8.93
2017-11-14T11:33:53.431Z,8.90
2017-11-14T11:36:20.891Z,8.40
2017-11-14T11:38:48.337Z,8.33
2017-11-14T11:41:16.275Z,9.10
2017-11-14T11:43:43.711Z,8.52
2017-11-14T11:46:11.641Z,7.70
2017-11-14T11:48:43.398Z,8.93
2017-11-14T11:51:13.517Z,8.70
2017-11-14T11:53:41.326Z,9.60
2017-11-14T11:56:08.787Z,8.30
2017-11-14T11:58:36.624Z,7.43
2017-11-14T12:01:04.074Z,7.50
2017-11-14T12:03:35.511Z,7.87
2017-11-14T12:06:02.953Z,8.93
2017-11-14T12:08:30.414Z,8.90
2017-11-14T12:10:57.863Z,9.60
2017-11-14T12:13:26.128Z,7.80
2017-11-14T12:15:53.575Z,8.63
2017-11-14T12:18:25.814Z,9.03
2017-11-14T12:20:53.275Z,9.07
2017-11-14T12:23:21.020Z,10.43
2017-11-14T12:25:48.489Z,9.60
2017-11-14T12:28:16.018Z,9.13
2017-11-14T12:30:43.682Z,9.43
2017-11-14T12:33:11.112Z,9.70
2017-11-14T12:35:38.598Z,9.57
2017-11-14T12:38:06.064Z,10.43
2017-11-14T12:40:33.509Z,7.77
2017-11-14T12:43:00.974Z,9.45
2017-11-14T12:45:29.367Z,10.48
2017-11-14T12:47:56.861Z,8.77
2017-11-14T12:50:24.291Z,9.00
2017-11-14T12:52:51.789Z,9.65
2017-11-14T12:55:19.336Z,9.10
2017-11-14T12:57:46.838Z,9.90
2017-11-14T13:00:14.302Z,9.77
2017-11-14T13:02:41.751Z,10.27
2017-11-14T13:05:09.206Z,8.43
2017-11-14T13:07:37.410Z,9.20
2017-11-14T13:10:05.001Z,8.98
2017-11-14T13:12:32.594Z,8.77
2017-11-14T13:15:02.476Z,8.70
2017-11-14T13:17:29.933Z,9.00
2017-11-14T13:19:57.681Z,9.00
2017-11-14T13:22:25.116Z,9.60
2017-11-14T13:24:52.604Z,8.90
2017-11-14T13:27:20.035Z,8.07
2017-11-14T13:29:47.526Z,9.73
2017-11-14T13:32:15.943Z,10.32
2017-11-14T13:34:43.386Z,9.10
2017-11-14T13:37:10.853Z,9.47
2017-11-14T13:39:38.326Z,11.65
2017-11-14T13:42:05.766Z,10.45
2017-11-14T13:44:33.235Z,7.53
2017-11-14T13:47:00.850Z,8.70
2017-11-14T13:49:33.363Z,11.98
2017-11-14T13:52:00.805Z,11.05
2017-11-14T13:54:28.250Z,12.20
2017-11-14T13:56:55.717Z,13.93
2017-11-14T13:59:24.938Z,12.00
2017-11-14T14:01:52.377Z,13.52
2017-11-14T14:04:20.207Z,14.82
2017-11-14T14:06:47.875Z,13.93
2017-11-14T14:09:15.306Z,16.12
2017-11-14T14:11:44.462Z,12.97
2017-11-14T14:14:11.982Z,14.70
2017-11-14T14:16:39.470Z,14.33
2017-11-14T14:19:07.079Z,13.77
2017-11-14T14:21:34.638Z,12.17
2017-11-14T14:24:02.841Z,15.50
2017-11-14T14:26:30.271Z,15.30
2017-11-14T14:28:58.500Z,13.53
2017-11-14T14:31:26.032Z,15.90
2017-11-14T14:33:53.510Z,16.40
2017-11-14T14:36:23.939Z,11.60
2017-11-14T14:38:52.062Z,11.93
2017-11-14T14:41:19.689Z,13.47
2017-11-14T14:43:47.588Z,9.03
2017-11-14T14:46:15.794Z,18.00
2017-11-14T14:48:43.269Z,10.20
2017-11-14T14:51:18.734Z,14.40
2017-11-14T14:53:46.490Z,14.07
2017-11-14T14:56:13.950Z,14.43
2017-11-14T14:58:42.114Z,15.75
2017-11-14T15:01:17.849Z,14.77
2017-11-14T15:03:46.238Z,16.20
2017-11-14T15:06:13.686Z,13.62
2017-11-14T15:08:41.131Z,15.17
2017-11-14T15:11:08.606Z,12.60
2017-11-14T15:13:36.079Z,16.13
2017-11-14T15:16:03.550Z,14.10
2017-11-14T15:18:31.629Z,15.77
2017-11-14T15:21:02.443Z,16.40
2017-11-14T15:23:30.106Z,16.10
2017-11-14T15:25:57.694Z,14.38
2017-11-14T15:28:25.169Z,15.80
2017-11-14T15:30:52.594Z,12.80
2017-11-14T15:33:21.190Z,15.25
2017-11-14T15:35:48.927Z,15.17
2017-11-14T15:38:16.395Z,14.30
2017-11-14T15:40:43.834Z,14.33
2017-11-14T15:43:12.426Z,16.20
2017-11-14T15:45:41.558Z,13.98
2017-11-14T15:48:09.006Z,13.52
2017-11-14T15:50:36.513Z,15.73
2017-11-14T15:53:05.699Z,15.25
2017-11-14T15:55:33.125Z,17.43
2017-11-14T15:58:01.901Z,14.50
2017-11-14T16:00:29.984Z,15.63
2017-11-14T16:02:57.472Z,14.40
2017-11-14T16:05:25.673Z,15.10
2017-11-14T16:07:53.130Z,17.10
2017-11-14T16:10:20.704Z,16.87
2017-11-14T16:12:48.806Z,13.88
2017-11-14T16:15:17.041Z,17.27
2017-11-14T16:17:44.524Z,15.88
2017-11-14T16:20:12.005Z,21.20
2017-11-14T16:22:39.646Z,22.00
2017-11-14T16:25:07.106Z,22.42
2017-11-14T16:27:34.831Z,17.70
2017-11-14T16:30:03.486Z,14.43
2017-11-14T16:32:30.966Z,13.37
2017-11-14T16:34:58.440Z,14.37
2017-11-14T16:37:25.905Z,19.80
2017-11-14T16:39:56.953Z,15.20
2017-11-14T16:42:24.498Z,15.50
2017-11-14T16:44:52.873Z,15.30
2017-11-14T16:47:20.322Z,14.37
2017-11-14T16:49:47.790Z,12.97
2017-11-14T16:52:15.271Z,13.40
2017-11-14T16:54:47.345Z,16.75
2017-11-14T16:57:14.925Z,12.00
2017-11-14T16:59:43.448Z,8.27
2017-11-14T17:02:11.728Z,11.93
2017-11-14T17:04:39.174Z,12.23
2017-11-14T17:07:06.739Z,11.07
2017-11-14T17:09:38.197Z,14.23
2017-11-14T17:12:06.585Z,12.80
2017-11-14T17:14:34.051Z,15.67
2017-11-14T17:17:01.653Z,15.43
2017-11-14T17:19:29.728Z,16.67
2017-11-14T17:21:57.169Z,17.67
2017-11-14T17:24:29.391Z,15.82
2017-11-14T17:26:56.857Z,16.52
2017-11-14T17:29:24.326Z,16.00
2017-11-14T17:31:51.789Z,18.62
2017-11-14T17:34:19.454Z,14.70
2017-11-14T17:36:46.900Z,16.37
2017-11-14T17:39:18.494Z,14.55
2017-11-14T17:41:45.934Z,15.07
2017-11-14T17:44:13.535Z,16.43
2017-11-14T17:46:42.256Z,16.40
2017-11-14T17:49:09.857Z,17.92
2017-11-14T17:51:37.724Z,18.80
2017-11-14T17:54:08.710Z,18.47
2017-11-14T17:56:36.308Z,17.50
2017-11-14T17:59:05.444Z,17.30
2017-11-14T18:01:32.902Z,16.50
2017-11-14T18:04:01.091Z,16.07
2017-11-14T18:06:28.578Z,18.05
2017-11-14T18:08:56.790Z,19.37
2017-11-14T18:11:24.243Z,16.50
2017-11-14T18:13:51.713Z,17.67
2017-11-14T18:16:19.183Z,16.27
2017-11-14T18:18:46.642Z,16.80
2017-11-14T18:21:14.122Z,17.40
2017-11-14T18:23:41.831Z,18.90
2017-11-14T18:26:09.274Z,14.73
2017-11-14T18:28:37.445Z,15.65
2017-11-14T18:31:04.885Z,15.23
2017-11-14T18:33:33.022Z,13.07
2017-11-14T18:36:00.491Z,15.60
2017-11-14T18:38:28.020Z,17.13
2017-11-14T18:40:55.511Z,14.33
2017-11-14T18:43:22.982Z,14.03
2017-11-14T18:45:52.155Z,16.03
2017-11-14T18:48:19.749Z,14.80
2017-11-14T18:50:47.195Z,16.37
2017-11-14T18:53:14.791Z,16.90
2017-11-14T18:55:42.230Z,17.27
2017-11-14T18:58:10.442Z,16.75
2017-11-14T19:00:37.914Z,14.13
2017-11-14T19:03:05.406Z,14.23
2017-11-14T19:05:33.677Z,12.73
2017-11-14T19:08:01.898Z,11.52
2017-11-14T19:10:29.654Z,13.60
2017-11-14T19:12:57.702Z,12.73
2017-11-14T19:15:25.975Z,12.80
2017-11-14T19:17:55.145Z,14.65
2017-11-14T19:20:22.766Z,14.97
2017-11-14T19:22:50.250Z,13.90
2017-11-14T19:25:17.701Z,19.48
2017-11-14T19:27:45.179Z,16.77
2017-11-14T19:30:13.569Z,14.45
2017-11-14T19:32:41.031Z,13.67
2017-11-14T19:35:09.245Z,13.70
2017-11-14T19:37:36.988Z,14.82
2017-11-14T19:40:04.538Z,13.83
2017-11-14T19:42:32.394Z,13.18
2017-11-14T19:44:59.978Z,12.90
2017-11-14T19:47:27.470Z,12.60
2017-11-14T19:49:55.080Z,13.67
2017-11-14T19:52:22.587Z,12.93
2017-11-14T19:54:50.046Z,12.30
2017-11-14T19:57:17.534Z,12.20
2017-11-14T19:59:47.410Z,12.83
2017-11-14T20:02:14.881Z,14.13
2017-11-14T20:04:42.361Z,13.55
2017-11-14T20:07:10.054Z,12.85
2017-11-14T20:09:37.860Z,14.43
2017-11-14T20:12:05.885Z,14.67
2017-11-14T20:14:36.799Z,13.37
2017-11-14T20:17:07.636Z,13.70
2017-11-14T20:19:35.917Z,11.98
2017-11-14T20:22:03.371Z,12.23
2017-11-14T20:24:31.239Z,12.90
2017-11-14T20:27:02.478Z,10.73
2017-11-14T20:29:30.750Z,14.13
2017-11-14T20:31:58.719Z,11.52
2017-11-14T20:34:26.227Z,13.65
2017-11-14T20:36:53.971Z,14.40
2017-11-14T20:39:21.433Z,12.90
2017-11-14T20:41:53.558Z,13.43
2017-11-14T20:44:24.993Z,12.70
2017-11-14T20:46:52.426Z,14.60
2017-11-14T20:49:20.367Z,12.85
2017-11-14T20:51:48.915Z,13.82
2017-11-14T20:54:16.385Z,11.07
2017-11-14T20:56:43.821Z,12.40
2017-11-14T20:59:11.359Z,14.30
2017-11-14T21:01:38.820Z,12.55
2017-11-14T21:04:06.266Z,12.47
2017-11-14T21:06:35.234Z,13.10
2017-11-14T21:09:02.669Z,14.40
2017-11-14T21:11:34.141Z,14.47
2017-11-14T21:14:04.630Z,12.97
2017-11-14T21:16:32.110Z,13.13
2017-11-14T21:18:59.569Z,13.13
2017-11-14T21:21:27.013Z,13.73
2017-11-14T21:23:54.479Z,13.10
2017-11-14T21:26:21.929Z,14.57
2017-11-14T21:28:49.414Z,13.37
2017-11-14T21:31:16.892Z,14.32
2017-11-14T21:33:44.391Z,14.27
2017-11-14T21:36:11.875Z,11.27
2017-11-14T21:38:40.098Z,12.07
2017-11-14T21:41:07.817Z,12.52
2017-11-14T21:43:38.410Z,11.20
2017-11-14T21:46:05.858Z,11.53
2017-11-14T21:48:33.330Z,14.07
2017-11-14T21:51:00.802Z,10.90
2017-11-14T21:53:28.446Z,11.87
2017-11-14T21:55:57.592Z,11.80
2017-11-14T21:58:25.087Z,12.43
2017-11-14T22:00:52.535Z,13.82
2017-11-14T22:03:20.020Z,12.30
2017-11-14T22:05:47.597Z,12.10
2017-11-14T22:08:15.959Z,12.20
2017-11-14T22:10:44.189Z,12.55
2017-11-14T22:13:14.874Z,11.53
2017-11-14T22:15:42.333Z,11.37
2017-11-14T22:18:09.769Z,11.80
2017-11-14T22:20:37.577Z,13.40
2017-11-14T22:23:06.346Z,12.85
2017-11-14T22:25:34.082Z,11.38
2017-11-14T22:28:02.096Z,10.93
2017-11-14T22:30:31.229Z,12.68
2017-11-14T22:32:58.748Z,11.53
2017-11-14T22:35:26.953Z,10.90
2017-11-14T22:37:55.245Z,11.26
2017-11-14T22:40:22.834Z,11.50
2017-11-14T22:42:51.879Z,11.10
2017-11-14T22:45:35.910Z,11.77
2017-11-14T22:48:03.386Z,12.80
2017-11-14T22:50:30.845Z,12.23
2017-11-14T22:52:58.325Z,10.60
2017-11-14T22:55:25.866Z,10.17
2017-11-14T22:57:53.313Z,11.30
2017-11-14T23:00:31.533Z,11.57
2017-11-14T23:02:58.987Z,11.73
2017-11-14T23:05:26.655Z,12.13
2017-11-14T23:07:54.098Z,12.77
2017-11-14T23:10:22.413Z,13.40
2017-11-14T23:12:50.044Z,11.67
2017-11-14T23:15:17.489Z,11.50
2017-11-14T23:17:44.970Z,12.50
2017-11-14T23:20:12.429Z,13.07
2017-11-14T23:22:39.900Z,14.40
2017-11-14T23:25:07.382Z,12.67
2017-11-14T23:27:35.847Z,12.13
2017-11-14T23:30:03.315Z,13.23
2017-11-14T23:32:31.575Z,11.73
2017-11-14T23:35:00.706Z,14.00
2017-11-14T23:37:28.159Z,12.57
2017-11-14T23:39:55.626Z,12.90
2017-11-14T23:42:23.065Z,11.80
2017-11-14T23:44:54.821Z,12.27
2017-11-14T23:47:22.441Z,13.30
2017-11-14T23:49:50.192Z,13.33
2017-11-14T23:52:17.655Z,13.68
2017-11-14T23:54:45.122Z,13.50
2017-11-14T23:57:12.653Z,13.10
2017-11-14T23:59:43.174Z,15.20
